Weather at Florennes airport - EBFS


metar: EBFS 161355Z 10008G18KT 9999 FEW200 14/M04 Q1027 BLU BLU

8 minuten geleden, om 13:55 UTC, de wind blies met windsnelheden van 4.1 meter per seconde(9.2 mijl per uur), met vlagen tot 9.3 meter per seconde (20.7 mijl per uur), vanuit Oost nabij Florennes airport. De temperatuur was 14 °C (57 °F), en de barometerdruk was 1,027 hPa (30.33 inHg). De relatieve vochtigheid was 28.4%. er was weinig bewolking op een hoogte van 6096 meter (20000 voet). De zichtbaarheid was >10 kilometer (>6.2 mijl).

temperature image   windir image sky image 

Last 24 hour graph Florennes airport - EBFS